sensor_id;sensor_type;location;lat;lon;timestamp;temperature;humidity
11188;DHT22;5650;52.700;7.306;2023-05-24T00:02:08;9.50;99.90
11188;DHT22;5650;52.700;7.306;2023-05-24T00:04:41;9.50;99.90
11188;DHT22;5650;52.700;7.306;2023-05-24T00:07:16;9.50;99.90
11188;DHT22;5650;52.700;7.306;2023-05-24T00:09:50;9.50;99.90
11188;DHT22;5650;52.700;7.306;2023-05-24T00:12:17;9.40;99.90
11188;DHT22;5650;52.700;7.306;2023-05-24T00:14:44;9.50;99.90
11188;DHT22;5650;52.700;7.306;2023-05-24T00:17:11;9.40;99.90
11188;DHT22;5650;52.700;7.306;2023-05-24T00:19:44;9.50;99.90
11188;DHT22;5650;52.700;7.306;2023-05-24T00:22:14;9.50;99.90
11188;DHT22;5650;52.700;7.306;2023-05-24T00:24:55;9.50;99.90
11188;DHT22;5650;52.700;7.306;2023-05-24T00:27:25;9.50;99.90
11188;DHT22;5650;52.700;7.306;2023-05-24T00:29:58;9.50;99.90
11188;DHT22;5650;52.700;7.306;2023-05-24T00:32:28;9.50;99.90
11188;DHT22;5650;52.700;7.306;2023-05-24T00:34:58;9.40;99.90
11188;DHT22;5650;52.700;7.306;2023-05-24T00:37:40;9.50;99.90
11188;DHT22;5650;52.700;7.306;2023-05-24T00:40:11;9.50;99.90
11188;DHT22;5650;52.700;7.306;2023-05-24T00:42:42;9.40;99.90
11188;DHT22;5650;52.700;7.306;2023-05-24T00:45:11;9.50;99.90
11188;DHT22;5650;52.700;7.306;2023-05-24T00:47:39;9.50;99.90
11188;DHT22;5650;52.700;7.306;2023-05-24T00:50:07;9.50;99.90
11188;DHT22;5650;52.700;7.306;2023-05-24T00:52:36;9.50;99.90
11188;DHT22;5650;52.700;7.306;2023-05-24T00:55:07;9.50;99.90
11188;DHT22;5650;52.700;7.306;2023-05-24T00:57:42;9.40;99.90
11188;DHT22;5650;52.700;7.306;2023-05-24T01:00:19;9.40;99.90
11188;DHT22;5650;52.700;7.306;2023-05-24T01:02:52;9.40;99.90
11188;DHT22;5650;52.700;7.306;2023-05-24T01:05:25;9.30;99.90
11188;DHT22;5650;52.700;7.306;2023-05-24T01:08:03;9.30;99.90
11188;DHT22;5650;52.700;7.306;2023-05-24T01:10:44;9.30;99.90
11188;DHT22;5650;52.700;7.306;2023-05-24T01:13:23;9.20;99.90
11188;DHT22;5650;52.700;7.306;2023-05-24T01:15:58;9.20;99.90
11188;DHT22;5650;52.700;7.306;2023-05-24T01:18:33;9.20;99.90
11188;DHT22;5650;52.700;7.306;2023-05-24T01:21:15;9.10;99.90
11188;DHT22;5650;52.700;7.306;2023-05-24T01:23:55;9.10;99.90
11188;DHT22;5650;52.700;7.306;2023-05-24T01:26:36;9.10;99.90
11188;DHT22;5650;52.700;7.306;2023-05-24T01:29:09;9.00;99.90
11188;DHT22;5650;52.700;7.306;2023-05-24T01:31:42;9.00;99.90
11188;DHT22;5650;52.700;7.306;2023-05-24T01:34:19;9.00;99.90
11188;DHT22;5650;52.700;7.306;2023-05-24T01:36:55;8.90;99.90
11188;DHT22;5650;52.700;7.306;2023-05-24T01:39:25;8.90;99.90
11188;DHT22;5650;52.700;7.306;2023-05-24T01:41:59;8.80;99.90
11188;DHT22;5650;52.700;7.306;2023-05-24T01:44:43;8.80;99.90
11188;DHT22;5650;52.700;7.306;2023-05-24T01:47:22;8.80;99.90
11188;DHT22;5650;52.700;7.306;2023-05-24T01:49:53;8.90;99.90
11188;DHT22;5650;52.700;7.306;2023-05-24T01:52:28;8.90;99.90
11188;DHT22;5650;52.700;7.306;2023-05-24T01:54:58;8.90;99.90
11188;DHT22;5650;52.700;7.306;2023-05-24T01:57:37;9.00;99.90
11188;DHT22;5650;52.700;7.306;2023-05-24T02:00:12;9.00;99.90
11188;DHT22;5650;52.700;7.306;2023-05-24T02:02:46;9.00;99.90
11188;DHT22;5650;52.700;7.306;2023-05-24T02:05:17;9.00;99.90
11188;DHT22;5650;52.700;7.306;2023-05-24T02:07:44;9.10;99.90
11188;DHT22;5650;52.700;7.306;2023-05-24T02:10:17;9.10;99.90
11188;DHT22;5650;52.700;7.306;2023-05-24T02:12:44;9.10;99.90
11188;DHT22;5650;52.700;7.306;2023-05-24T02:15:13;9.10;99.90
11188;DHT22;5650;52.700;7.306;2023-05-24T02:17:40;9.20;99.90
11188;DHT22;5650;52.700;7.306;2023-05-24T02:20:11;9.20;99.90
11188;DHT22;5650;52.700;7.306;2023-05-24T02:22:42;9.20;99.90
11188;DHT22;5650;52.700;7.306;2023-05-24T02:25:12;9.20;99.90
11188;DHT22;5650;52.700;7.306;2023-05-24T02:27:45;9.30;99.90
11188;DHT22;5650;52.700;7.306;2023-05-24T02:30:14;9.30;99.90
11188;DHT22;5650;52.700;7.306;2023-05-24T02:32:41;9.30;99.90
11188;DHT22;5650;52.700;7.306;2023-05-24T02:35:17;9.30;99.90
11188;DHT22;5650;52.700;7.306;2023-05-24T02:37:44;9.30;99.90
11188;DHT22;5650;52.700;7.306;2023-05-24T02:40:12;9.30;99.90
11188;DHT22;5650;52.700;7.306;2023-05-24T02:42:45;9.30;99.90
11188;DHT22;5650;52.700;7.306;2023-05-24T02:45:14;9.30;99.90
11188;DHT22;5650;52.700;7.306;2023-05-24T02:47:41;9.30;99.90
11188;DHT22;5650;52.700;7.306;2023-05-24T02:50:13;9.30;99.90
11188;DHT22;5650;52.700;7.306;2023-05-24T02:52:41;9.20;99.90
11188;DHT22;5650;52.700;7.306;2023-05-24T02:55:08;9.20;99.90
11188;DHT22;5650;52.700;7.306;2023-05-24T02:57:41;9.20;99.90
11188;DHT22;5650;52.700;7.306;2023-05-24T03:00:14;9.20;99.90
11188;DHT22;5650;52.700;7.306;2023-05-24T03:02:46;9.20;99.90
11188;DHT22;5650;52.700;7.306;2023-05-24T03:05:15;9.10;99.90
11188;DHT22;5650;52.700;7.306;2023-05-24T03:07:46;9.10;99.90
11188;DHT22;5650;52.700;7.306;2023-05-24T03:10:16;9.10;99.90
11188;DHT22;5650;52.700;7.306;2023-05-24T03:12:58;9.10;99.90
11188;DHT22;5650;52.700;7.306;2023-05-24T03:15:30;9.10;99.90
11188;DHT22;5650;52.700;7.306;2023-05-24T03:18:00;9.10;99.90
11188;DHT22;5650;52.700;7.306;2023-05-24T03:20:29;9.10;99.90
11188;DHT22;5650;52.700;7.306;2023-05-24T03:23:07;9.10;99.90
11188;DHT22;5650;52.700;7.306;2023-05-24T03:25:36;9.10;99.90
11188;DHT22;5650;52.700;7.306;2023-05-24T03:28:03;9.10;99.90
11188;DHT22;5650;52.700;7.306;2023-05-24T03:30:36;9.10;99.90
11188;DHT22;5650;52.700;7.306;2023-05-24T03:33:06;9.10;99.90
11188;DHT22;5650;52.700;7.306;2023-05-24T03:35:36;9.10;99.90
11188;DHT22;5650;52.700;7.306;2023-05-24T03:38:09;9.10;99.90
11188;DHT22;5650;52.700;7.306;2023-05-24T03:40:39;9.10;99.90
11188;DHT22;5650;52.700;7.306;2023-05-24T03:43:09;9.10;99.90
11188;DHT22;5650;52.700;7.306;2023-05-24T03:45:45;9.20;99.90
11188;DHT22;5650;52.700;7.306;2023-05-24T03:48:26;9.20;99.90
11188;DHT22;5650;52.700;7.306;2023-05-24T03:51:05;9.20;99.90
11188;DHT22;5650;52.700;7.306;2023-05-24T03:53:33;9.30;99.90
11188;DHT22;5650;52.700;7.306;2023-05-24T03:56:13;9.30;99.90
11188;DHT22;5650;52.700;7.306;2023-05-24T03:58:42;9.40;99.90
11188;DHT22;5650;52.700;7.306;2023-05-24T04:01:18;9.40;99.90
11188;DHT22;5650;52.700;7.306;2023-05-24T04:03:53;9.50;99.90
11188;DHT22;5650;52.700;7.306;2023-05-24T04:06:21;9.50;99.90
11188;DHT22;5650;52.700;7.306;2023-05-24T04:09:02;9.60;99.90
11188;DHT22;5650;52.700;7.306;2023-05-24T04:11:30;9.60;99.90
11188;DHT22;5650;52.700;7.306;2023-05-24T04:14:03;9.60;99.90
11188;DHT22;5650;52.700;7.306;2023-05-24T04:16:35;9.70;99.90
11188;DHT22;5650;52.700;7.306;2023-05-24T04:19:07;9.70;99.90
11188;DHT22;5650;52.700;7.306;2023-05-24T04:21:34;9.80;99.90
11188;DHT22;5650;52.700;7.306;2023-05-24T04:24:02;9.90;99.90
11188;DHT22;5650;52.700;7.306;2023-05-24T04:26:35;9.90;99.90
11188;DHT22;5650;52.700;7.306;2023-05-24T04:29:05;10.00;99.90
11188;DHT22;5650;52.700;7.306;2023-05-24T04:31:35;10.20;99.90
11188;DHT22;5650;52.700;7.306;2023-05-24T04:34:11;10.30;99.90
11188;DHT22;5650;52.700;7.306;2023-05-24T04:36:39;10.40;99.90
11188;DHT22;5650;52.700;7.306;2023-05-24T04:39:09;10.40;99.90
11188;DHT22;5650;52.700;7.306;2023-05-24T04:41:44;10.50;99.90
11188;DHT22;5650;52.700;7.306;2023-05-24T04:44:11;10.50;99.90
11188;DHT22;5650;52.700;7.306;2023-05-24T04:46:40;10.60;99.90
11188;DHT22;5650;52.700;7.306;2023-05-24T04:49:10;10.70;99.90
11188;DHT22;5650;52.700;7.306;2023-05-24T04:51:44;10.80;99.90
11188;DHT22;5650;52.700;7.306;2023-05-24T04:54:18;10.80;99.90
11188;DHT22;5650;52.700;7.306;2023-05-24T04:56:45;10.80;99.90
11188;DHT22;5650;52.700;7.306;2023-05-24T04:59:12;10.90;99.90
11188;DHT22;5650;52.700;7.306;2023-05-24T05:01:41;10.90;99.90
11188;DHT22;5650;52.700;7.306;2023-05-24T05:04:11;10.90;99.90
11188;DHT22;5650;52.700;7.306;2023-05-24T05:06:38;11.00;99.90
11188;DHT22;5650;52.700;7.306;2023-05-24T05:09:08;11.00;99.90
11188;DHT22;5650;52.700;7.306;2023-05-24T05:11:38;11.10;99.90
11188;DHT22;5650;52.700;7.306;2023-05-24T05:14:06;11.20;99.90
11188;DHT22;5650;52.700;7.306;2023-05-24T05:16:34;11.30;99.90
11188;DHT22;5650;52.700;7.306;2023-05-24T05:19:03;11.40;99.90
11188;DHT22;5650;52.700;7.306;2023-05-24T05:21:30;11.60;99.90
11188;DHT22;5650;52.700;7.306;2023-05-24T05:24:04;11.80;99.90
11188;DHT22;5650;52.700;7.306;2023-05-24T05:26:44;11.90;99.90
11188;DHT22;5650;52.700;7.306;2023-05-24T05:29:13;11.90;99.90
11188;DHT22;5650;52.700;7.306;2023-05-24T05:32:06;11.90;99.90
11188;DHT22;5650;52.700;7.306;2023-05-24T05:34:46;12.00;99.90
11188;DHT22;5650;52.700;7.306;2023-05-24T05:37:14;12.00;99.90
11188;DHT22;5650;52.700;7.306;2023-05-24T05:39:50;12.10;99.90
11188;DHT22;5650;52.700;7.306;2023-05-24T05:42:23;12.20;99.90
11188;DHT22;5650;52.700;7.306;2023-05-24T05:44:51;12.30;99.90
11188;DHT22;5650;52.700;7.306;2023-05-24T05:47:21;12.40;99.90
11188;DHT22;5650;52.700;7.306;2023-05-24T05:49:50;12.50;99.90
11188;DHT22;5650;52.700;7.306;2023-05-24T05:52:20;12.70;99.90
11188;DHT22;5650;52.700;7.306;2023-05-24T05:54:47;12.90;99.90
11188;DHT22;5650;52.700;7.306;2023-05-24T05:57:14;13.30;99.90
11188;DHT22;5650;52.700;7.306;2023-05-24T05:59:44;13.50;99.90
11188;DHT22;5650;52.700;7.306;2023-05-24T06:02:11;13.70;99.90
11188;DHT22;5650;52.700;7.306;2023-05-24T06:04:38;13.70;99.90
11188;DHT22;5650;52.700;7.306;2023-05-24T06:07:07;13.70;99.90
11188;DHT22;5650;52.700;7.306;2023-05-24T06:09:37;13.40;99.90
11188;DHT22;5650;52.700;7.306;2023-05-24T06:12:07;13.40;99.90
11188;DHT22;5650;52.700;7.306;2023-05-24T06:14:39;13.20;99.90
11188;DHT22;5650;52.700;7.306;2023-05-24T06:17:06;13.50;99.90
11188;DHT22;5650;52.700;7.306;2023-05-24T06:19:34;14.10;99.90
11188;DHT22;5650;52.700;7.306;2023-05-24T06:22:01;14.90;99.90
11188;DHT22;5650;52.700;7.306;2023-05-24T06:24:30;15.40;99.90
11188;DHT22;5650;52.700;7.306;2023-05-24T06:26:59;15.60;99.90
11188;DHT22;5650;52.700;7.306;2023-05-24T06:29:26;15.80;99.90
11188;DHT22;5650;52.700;7.306;2023-05-24T06:31:59;15.90;99.90
11188;DHT22;5650;52.700;7.306;2023-05-24T06:34:26;16.00;99.90
11188;DHT22;5650;52.700;7.306;2023-05-24T06:36:57;16.00;99.90
11188;DHT22;5650;52.700;7.306;2023-05-24T06:39:34;16.30;99.90
11188;DHT22;5650;52.700;7.306;2023-05-24T06:42:05;16.80;99.90
11188;DHT22;5650;52.700;7.306;2023-05-24T06:44:38;16.80;99.90
11188;DHT22;5650;52.700;7.306;2023-05-24T06:47:08;16.40;99.90
11188;DHT22;5650;52.700;7.306;2023-05-24T06:49:39;15.90;99.90
11188;DHT22;5650;52.700;7.306;2023-05-24T06:52:06;15.30;99.90
11188;DHT22;5650;52.700;7.306;2023-05-24T06:54:50;14.90;99.90
11188;DHT22;5650;52.700;7.306;2023-05-24T06:57:20;14.50;99.90
11188;DHT22;5650;52.700;7.306;2023-05-24T06:59:51;14.30;99.90
11188;DHT22;5650;52.700;7.306;2023-05-24T07:02:22;14.10;99.90
11188;DHT22;5650;52.700;7.306;2023-05-24T07:05:00;13.80;99.90
11188;DHT22;5650;52.700;7.306;2023-05-24T07:07:28;13.70;99.90
11188;DHT22;5650;52.700;7.306;2023-05-24T07:10:00;13.60;99.90
11188;DHT22;5650;52.700;7.306;2023-05-24T07:12:27;13.50;99.90
11188;DHT22;5650;52.700;7.306;2023-05-24T07:15:05;13.50;99.90
11188;DHT22;5650;52.700;7.306;2023-05-24T07:17:33;13.50;99.90
11188;DHT22;5650;52.700;7.306;2023-05-24T07:20:07;13.40;99.90
11188;DHT22;5650;52.700;7.306;2023-05-24T07:22:45;13.40;99.90
11188;DHT22;5650;52.700;7.306;2023-05-24T07:25:16;13.40;99.90
11188;DHT22;5650;52.700;7.306;2023-05-24T07:27:43;13.30;99.90
11188;DHT22;5650;52.700;7.306;2023-05-24T07:30:17;13.40;99.90
11188;DHT22;5650;52.700;7.306;2023-05-24T07:32:44;13.30;99.90
11188;DHT22;5650;52.700;7.306;2023-05-24T07:35:14;13.40;99.90
11188;DHT22;5650;52.700;7.306;2023-05-24T07:37:48;13.30;99.90
11188;DHT22;5650;52.700;7.306;2023-05-24T07:40:17;13.40;99.90
11188;DHT22;5650;52.700;7.306;2023-05-24T07:42:44;13.40;99.90
11188;DHT22;5650;52.700;7.306;2023-05-24T07:45:14;13.50;99.90
11188;DHT22;5650;52.700;7.306;2023-05-24T07:47:41;13.60;99.90
11188;DHT22;5650;52.700;7.306;2023-05-24T07:50:12;13.80;99.90
11188;DHT22;5650;52.700;7.306;2023-05-24T07:52:57;14.00;99.90
11188;DHT22;5650;52.700;7.306;2023-05-24T07:55:26;14.10;99.90
11188;DHT22;5650;52.700;7.306;2023-05-24T07:57:56;14.30;99.90
11188;DHT22;5650;52.700;7.306;2023-05-24T08:00:32;14.40;99.90
11188;DHT22;5650;52.700;7.306;2023-05-24T08:03:06;14.30;99.90
11188;DHT22;5650;52.700;7.306;2023-05-24T08:05:48;14.30;99.90
11188;DHT22;5650;52.700;7.306;2023-05-24T08:08:16;14.30;99.90
11188;DHT22;5650;52.700;7.306;2023-05-24T08:10:45;14.30;99.90
11188;DHT22;5650;52.700;7.306;2023-05-24T08:13:13;14.30;99.90
11188;DHT22;5650;52.700;7.306;2023-05-24T08:15:40;14.30;99.90
11188;DHT22;5650;52.700;7.306;2023-05-24T08:18:07;14.30;99.90
11188;DHT22;5650;52.700;7.306;2023-05-24T08:20:37;14.40;99.90
11188;DHT22;5650;52.700;7.306;2023-05-24T08:23:05;14.60;99.90
11188;DHT22;5650;52.700;7.306;2023-05-24T08:25:38;14.70;99.90
11188;DHT22;5650;52.700;7.306;2023-05-24T08:28:10;14.70;99.90
11188;DHT22;5650;52.700;7.306;2023-05-24T08:30:37;14.80;99.90
11188;DHT22;5650;52.700;7.306;2023-05-24T08:33:09;14.70;99.90
11188;DHT22;5650;52.700;7.306;2023-05-24T08:35:39;14.60;99.90
11188;DHT22;5650;52.700;7.306;2023-05-24T08:38:12;14.50;99.90
11188;DHT22;5650;52.700;7.306;2023-05-24T08:40:39;14.40;99.90
11188;DHT22;5650;52.700;7.306;2023-05-24T08:43:06;14.30;99.90
11188;DHT22;5650;52.700;7.306;2023-05-24T08:45:42;14.40;99.90
11188;DHT22;5650;52.700;7.306;2023-05-24T08:48:13;14.40;99.90
11188;DHT22;5650;52.700;7.306;2023-05-24T08:50:46;14.40;99.90
11188;DHT22;5650;52.700;7.306;2023-05-24T08:53:20;14.50;99.90
11188;DHT22;5650;52.700;7.306;2023-05-24T08:55:49;14.70;99.90
11188;DHT22;5650;52.700;7.306;2023-05-24T08:58:20;15.10;99.90
11188;DHT22;5650;52.700;7.306;2023-05-24T09:00:49;15.60;99.90
11188;DHT22;5650;52.700;7.306;2023-05-24T09:03:20;16.10;99.90
11188;DHT22;5650;52.700;7.306;2023-05-24T09:05:47;16.00;99.90
11188;DHT22;5650;52.700;7.306;2023-05-24T09:08:15;15.90;99.90
11188;DHT22;5650;52.700;7.306;2023-05-24T09:10:45;15.60;99.90
11188;DHT22;5650;52.700;7.306;2023-05-24T09:13:14;15.30;99.90
11188;DHT22;5650;52.700;7.306;2023-05-24T09:15:41;15.20;99.90
11188;DHT22;5650;52.700;7.306;2023-05-24T09:18:10;15.00;99.90
11188;DHT22;5650;52.700;7.306;2023-05-24T09:20:38;15.00;99.90
11188;DHT22;5650;52.700;7.306;2023-05-24T09:23:14;15.00;99.90
11188;DHT22;5650;52.700;7.306;2023-05-24T09:25:43;15.10;99.90
11188;DHT22;5650;52.700;7.306;2023-05-24T09:28:17;15.20;99.90
11188;DHT22;5650;52.700;7.306;2023-05-24T09:30:59;15.30;99.90
11188;DHT22;5650;52.700;7.306;2023-05-24T09:33:50;15.30;99.90
11188;DHT22;5650;52.700;7.306;2023-05-24T09:36:17;15.40;99.90
11188;DHT22;5650;52.700;7.306;2023-05-24T09:38:44;15.40;99.90
11188;DHT22;5650;52.700;7.306;2023-05-24T09:41:11;15.50;99.90
11188;DHT22;5650;52.700;7.306;2023-05-24T09:43:47;15.50;99.90
11188;DHT22;5650;52.700;7.306;2023-05-24T09:46:18;15.60;99.90
11188;DHT22;5650;52.700;7.306;2023-05-24T09:49:03;15.50;99.90
11188;DHT22;5650;52.700;7.306;2023-05-24T09:51:32;15.60;99.90
11188;DHT22;5650;52.700;7.306;2023-05-24T09:54:00;15.60;99.90
11188;DHT22;5650;52.700;7.306;2023-05-24T09:56:28;15.80;99.90
11188;DHT22;5650;52.700;7.306;2023-05-24T09:59:03;15.90;99.90
11188;DHT22;5650;52.700;7.306;2023-05-24T10:01:31;16.10;99.90
11188;DHT22;5650;52.700;7.306;2023-05-24T10:04:02;16.20;99.90
11188;DHT22;5650;52.700;7.306;2023-05-24T10:06:37;16.10;99.90
11188;DHT22;5650;52.700;7.306;2023-05-24T10:09:05;16.00;99.90
11188;DHT22;5650;52.700;7.306;2023-05-24T10:11:42;15.90;99.90
11188;DHT22;5650;52.700;7.306;2023-05-24T10:14:10;15.90;99.90
11188;DHT22;5650;52.700;7.306;2023-05-24T10:16:46;15.80;99.90
11188;DHT22;5650;52.700;7.306;2023-05-24T10:19:18;15.70;99.90
11188;DHT22;5650;52.700;7.306;2023-05-24T10:21:47;15.80;99.90
11188;DHT22;5650;52.700;7.306;2023-05-24T10:24:18;15.80;99.90
11188;DHT22;5650;52.700;7.306;2023-05-24T10:26:52;15.70;99.90
11188;DHT22;5650;52.700;7.306;2023-05-24T10:29:51;15.60;99.90
11188;DHT22;5650;52.700;7.306;2023-05-24T10:32:22;15.60;99.90
11188;DHT22;5650;52.700;7.306;2023-05-24T10:34:51;15.60;99.90
11188;DHT22;5650;52.700;7.306;2023-05-24T10:37:19;15.70;99.90
11188;DHT22;5650;52.700;7.306;2023-05-24T10:39:50;15.80;99.90
11188;DHT22;5650;52.700;7.306;2023-05-24T10:42:23;15.90;99.90
11188;DHT22;5650;52.700;7.306;2023-05-24T10:44:51;15.90;99.90
11188;DHT22;5650;52.700;7.306;2023-05-24T10:47:36;15.90;99.90
11188;DHT22;5650;52.700;7.306;2023-05-24T10:50:16;15.90;99.90
11188;DHT22;5650;52.700;7.306;2023-05-24T10:52:44;15.80;99.90
11188;DHT22;5650;52.700;7.306;2023-05-24T10:55:12;15.80;99.90
11188;DHT22;5650;52.700;7.306;2023-05-24T10:57:39;15.80;99.90
11188;DHT22;5650;52.700;7.306;2023-05-24T11:00:31;15.80;99.90
11188;DHT22;5650;52.700;7.306;2023-05-24T11:03:09;15.90;99.90
11188;DHT22;5650;52.700;7.306;2023-05-24T11:05:52;15.90;99.90
11188;DHT22;5650;52.700;7.306;2023-05-24T11:08:24;15.90;99.90
11188;DHT22;5650;52.700;7.306;2023-05-24T11:11:06;15.90;99.90
11188;DHT22;5650;52.700;7.306;2023-05-24T11:13:40;15.90;99.90
11188;DHT22;5650;52.700;7.306;2023-05-24T11:16:16;15.90;99.90
11188;DHT22;5650;52.700;7.306;2023-05-24T11:19:18;16.00;99.90
11188;DHT22;5650;52.700;7.306;2023-05-24T11:21:48;16.10;99.90
11188;DHT22;5650;52.700;7.306;2023-05-24T11:24:16;16.20;99.90
11188;DHT22;5650;52.700;7.306;2023-05-24T11:26:59;16.40;99.90
11188;DHT22;5650;52.700;7.306;2023-05-24T11:29:39;16.30;99.90
11188;DHT22;5650;52.700;7.306;2023-05-24T11:32:07;16.20;99.90
11188;DHT22;5650;52.700;7.306;2023-05-24T11:34:34;16.30;99.90
11188;DHT22;5650;52.700;7.306;2023-05-24T11:37:06;16.40;99.90
11188;DHT22;5650;52.700;7.306;2023-05-24T11:39:37;16.50;99.90
11188;DHT22;5650;52.700;7.306;2023-05-24T11:42:05;16.50;99.90
11188;DHT22;5650;52.700;7.306;2023-05-24T11:44:34;16.70;99.90
11188;DHT22;5650;52.700;7.306;2023-05-24T11:47:04;17.00;99.90
11188;DHT22;5650;52.700;7.306;2023-05-24T11:49:32;17.10;99.90
11188;DHT22;5650;52.700;7.306;2023-05-24T11:52:08;17.20;99.90
11188;DHT22;5650;52.700;7.306;2023-05-24T11:54:43;17.10;99.90
11188;DHT22;5650;52.700;7.306;2023-05-24T11:57:11;17.20;99.90
11188;DHT22;5650;52.700;7.306;2023-05-24T11:59:40;17.30;99.90
11188;DHT22;5650;52.700;7.306;2023-05-24T12:02:09;17.20;99.90
11188;DHT22;5650;52.700;7.306;2023-05-24T12:04:52;17.20;99.90
11188;DHT22;5650;52.700;7.306;2023-05-24T12:07:22;17.30;99.90
11188;DHT22;5650;52.700;7.306;2023-05-24T12:09:58;17.40;99.90
11188;DHT22;5650;52.700;7.306;2023-05-24T12:12:32;17.30;99.90
11188;DHT22;5650;52.700;7.306;2023-05-24T12:15:05;17.40;99.90
11188;DHT22;5650;52.700;7.306;2023-05-24T12:17:36;17.50;99.90
11188;DHT22;5650;52.700;7.306;2023-05-24T12:20:09;17.60;99.90
11188;DHT22;5650;52.700;7.306;2023-05-24T12:22:47;17.60;99.90
11188;DHT22;5650;52.700;7.306;2023-05-24T12:25:16;17.70;99.90
11188;DHT22;5650;52.700;7.306;2023-05-24T12:27:52;17.60;99.90
11188;DHT22;5650;52.700;7.306;2023-05-24T12:30:24;17.40;99.90
11188;DHT22;5650;52.700;7.306;2023-05-24T12:32:51;17.40;99.90
11188;DHT22;5650;52.700;7.306;2023-05-24T12:35:22;17.30;99.90
11188;DHT22;5650;52.700;7.306;2023-05-24T12:37:58;17.30;99.90
11188;DHT22;5650;52.700;7.306;2023-05-24T12:40:35;17.30;99.90
11188;DHT22;5650;52.700;7.306;2023-05-24T12:43:04;17.40;99.90
11188;DHT22;5650;52.700;7.306;2023-05-24T12:45:32;17.30;99.90
11188;DHT22;5650;52.700;7.306;2023-05-24T12:48:02;17.30;99.90
11188;DHT22;5650;52.700;7.306;2023-05-24T12:50:29;17.20;99.90
11188;DHT22;5650;52.700;7.306;2023-05-24T12:53:03;17.20;99.90
11188;DHT22;5650;52.700;7.306;2023-05-24T12:55:38;17.10;99.90
11188;DHT22;5650;52.700;7.306;2023-05-24T12:58:09;17.00;99.90
11188;DHT22;5650;52.700;7.306;2023-05-24T13:00:45;17.10;99.90
11188;DHT22;5650;52.700;7.306;2023-05-24T13:03:14;17.20;99.90
11188;DHT22;5650;52.700;7.306;2023-05-24T13:05:45;17.20;99.90
11188;DHT22;5650;52.700;7.306;2023-05-24T13:08:13;17.30;99.90
11188;DHT22;5650;52.700;7.306;2023-05-24T13:10:41;17.40;99.90
11188;DHT22;5650;52.700;7.306;2023-05-24T13:13:08;17.40;99.90
11188;DHT22;5650;52.700;7.306;2023-05-24T13:15:41;17.40;99.90
11188;DHT22;5650;52.700;7.306;2023-05-24T13:18:09;17.30;99.90
11188;DHT22;5650;52.700;7.306;2023-05-24T13:20:42;17.40;99.90
11188;DHT22;5650;52.700;7.306;2023-05-24T13:23:09;17.50;99.90
11188;DHT22;5650;52.700;7.306;2023-05-24T13:25:39;17.50;99.90
11188;DHT22;5650;52.700;7.306;2023-05-24T13:28:09;17.50;99.90
11188;DHT22;5650;52.700;7.306;2023-05-24T13:30:36;17.60;99.90
11188;DHT22;5650;52.700;7.306;2023-05-24T13:33:04;17.50;99.80
11188;DHT22;5650;52.700;7.306;2023-05-24T13:35:31;17.50;99.90
11188;DHT22;5650;52.700;7.306;2023-05-24T13:38:10;17.60;99.90
11188;DHT22;5650;52.700;7.306;2023-05-24T13:40:40;17.70;99.90
11188;DHT22;5650;52.700;7.306;2023-05-24T13:43:07;17.80;99.90
11188;DHT22;5650;52.700;7.306;2023-05-24T13:45:43;17.80;99.80
11188;DHT22;5650;52.700;7.306;2023-05-24T13:48:13;17.90;99.90
11188;DHT22;5650;52.700;7.306;2023-05-24T13:50:41;17.90;99.90
11188;DHT22;5650;52.700;7.306;2023-05-24T13:53:15;17.90;99.90
11188;DHT22;5650;52.700;7.306;2023-05-24T13:55:49;17.90;99.90
11188;DHT22;5650;52.700;7.306;2023-05-24T13:58:17;17.90;99.90
11188;DHT22;5650;52.700;7.306;2023-05-24T14:00:44;17.90;99.90
11188;DHT22;5650;52.700;7.306;2023-05-24T14:03:11;17.80;99.90
11188;DHT22;5650;52.700;7.306;2023-05-24T14:05:52;17.90;99.90
11188;DHT22;5650;52.700;7.306;2023-05-24T14:08:19;17.90;99.50
11188;DHT22;5650;52.700;7.306;2023-05-24T14:10:47;18.00;99.70
11188;DHT22;5650;52.700;7.306;2023-05-24T14:13:23;18.00;99.80
11188;DHT22;5650;52.700;7.306;2023-05-24T14:15:51;18.10;99.90
11188;DHT22;5650;52.700;7.306;2023-05-24T14:18:21;18.10;99.90
11188;DHT22;5650;52.700;7.306;2023-05-24T14:20:48;18.00;99.90
11188;DHT22;5650;52.700;7.306;2023-05-24T14:23:18;17.90;99.80
11188;DHT22;5650;52.700;7.306;2023-05-24T14:25:51;17.70;99.90
11188;DHT22;5650;52.700;7.306;2023-05-24T14:28:32;17.60;99.90
11188;DHT22;5650;52.700;7.306;2023-05-24T14:31:00;17.50;99.90
11188;DHT22;5650;52.700;7.306;2023-05-24T14:33:30;17.40;99.90
11188;DHT22;5650;52.700;7.306;2023-05-24T14:36:01;17.40;99.90
11188;DHT22;5650;52.700;7.306;2023-05-24T14:38:34;17.40;99.90
11188;DHT22;5650;52.700;7.306;2023-05-24T14:41:04;17.40;99.90
11188;DHT22;5650;52.700;7.306;2023-05-24T14:43:39;17.30;99.90
11188;DHT22;5650;52.700;7.306;2023-05-24T14:46:11;17.40;99.90
11188;DHT22;5650;52.700;7.306;2023-05-24T14:48:44;17.40;99.90
11188;DHT22;5650;52.700;7.306;2023-05-24T14:51:12;17.40;99.90
11188;DHT22;5650;52.700;7.306;2023-05-24T14:53:39;17.50;99.90
11188;DHT22;5650;52.700;7.306;2023-05-24T14:56:06;17.40;99.90
11188;DHT22;5650;52.700;7.306;2023-05-24T14:58:35;17.40;99.90
11188;DHT22;5650;52.700;7.306;2023-05-24T15:01:12;17.20;99.90
11188;DHT22;5650;52.700;7.306;2023-05-24T15:03:39;17.10;99.90
11188;DHT22;5650;52.700;7.306;2023-05-24T15:06:13;17.10;99.90
11188;DHT22;5650;52.700;7.306;2023-05-24T15:08:40;17.10;99.90
11188;DHT22;5650;52.700;7.306;2023-05-24T15:11:10;17.10;99.90
11188;DHT22;5650;52.700;7.306;2023-05-24T15:13:39;17.10;99.90
11188;DHT22;5650;52.700;7.306;2023-05-24T15:16:09;17.10;99.90
11188;DHT22;5650;52.700;7.306;2023-05-24T15:18:36;17.20;99.90
11188;DHT22;5650;52.700;7.306;2023-05-24T15:21:07;17.10;99.90
11188;DHT22;5650;52.700;7.306;2023-05-24T15:23:37;17.00;99.90
11188;DHT22;5650;52.700;7.306;2023-05-24T15:26:04;16.90;99.90
11188;DHT22;5650;52.700;7.306;2023-05-24T15:28:33;16.90;99.90
11188;DHT22;5650;52.700;7.306;2023-05-24T15:31:01;16.80;99.90
11188;DHT22;5650;52.700;7.306;2023-05-24T15:33:29;16.80;99.90
11188;DHT22;5650;52.700;7.306;2023-05-24T15:35:57;16.80;99.90
11188;DHT22;5650;52.700;7.306;2023-05-24T15:38:30;16.90;99.90
11188;DHT22;5650;52.700;7.306;2023-05-24T15:41:03;16.90;99.90
11188;DHT22;5650;52.700;7.306;2023-05-24T15:43:37;16.90;99.90
11188;DHT22;5650;52.700;7.306;2023-05-24T15:46:08;16.90;99.90
11188;DHT22;5650;52.700;7.306;2023-05-24T15:48:36;16.90;99.90
11188;DHT22;5650;52.700;7.306;2023-05-24T15:51:03;16.80;99.90
11188;DHT22;5650;52.700;7.306;2023-05-24T15:53:32;16.70;99.90
11188;DHT22;5650;52.700;7.306;2023-05-24T15:56:05;16.80;99.90
11188;DHT22;5650;52.700;7.306;2023-05-24T15:58:35;16.90;99.90
11188;DHT22;5650;52.700;7.306;2023-05-24T16:01:02;16.90;99.90
11188;DHT22;5650;52.700;7.306;2023-05-24T16:03:31;16.90;99.90
11188;DHT22;5650;52.700;7.306;2023-05-24T16:06:01;16.90;99.90
11188;DHT22;5650;52.700;7.306;2023-05-24T16:08:28;16.80;99.90
11188;DHT22;5650;52.700;7.306;2023-05-24T16:10:56;16.60;99.90
11188;DHT22;5650;52.700;7.306;2023-05-24T16:13:25;16.50;99.90
11188;DHT22;5650;52.700;7.306;2023-05-24T16:16:02;16.30;99.90
11188;DHT22;5650;52.700;7.306;2023-05-24T16:18:30;16.20;99.90